sensor_id;sensor_type;location;lat;lon;timestamp;pressure;altitude;pressure_sealevel;temperature;humidity
77041;BME280;65974;42.664;23.264;2023-12-29T00:01:31;95054.41;;;2.47;86.82
77041;BME280;65974;42.664;23.264;2023-12-29T00:03:58;95053.78;;;2.41;87.20
77041;BME280;65974;42.664;23.264;2023-12-29T00:06:23;95054.88;;;2.49;87.14
77041;BME280;65974;42.664;23.264;2023-12-29T00:08:49;95053.63;;;2.46;86.98
77041;BME280;65974;42.664;23.264;2023-12-29T00:11:21;95055.16;;;2.47;87.10
77041;BME280;65974;42.664;23.264;2023-12-29T00:13:47;95053.94;;;2.45;87.10
77041;BME280;65974;42.664;23.264;2023-12-29T00:16:12;95043.13;;;2.38;87.10
77041;BME280;65974;42.664;23.264;2023-12-29T00:18:38;95053.50;;;2.34;87.43
77041;BME280;65974;42.664;23.264;2023-12-29T00:21:04;95051.47;;;2.40;86.78
77041;BME280;65974;42.664;23.264;2023-12-29T00:23:30;95053.63;;;2.46;86.39
77041;BME280;65974;42.664;23.264;2023-12-29T00:25:55;95046.19;;;2.48;86.10
77041;BME280;65974;42.664;23.264;2023-12-29T00:28:21;95052.25;;;2.49;86.10
77041;BME280;65974;42.664;23.264;2023-12-29T00:30:46;95048.50;;;2.50;86.53
77041;BME280;65974;42.664;23.264;2023-12-29T00:33:12;95053.03;;;2.49;86.51
77041;BME280;65974;42.664;23.264;2023-12-29T00:35:37;95045.44;;;2.48;86.57
77041;BME280;65974;42.664;23.264;2023-12-29T00:38:06;95046.34;;;2.43;86.61
77041;BME280;65974;42.664;23.264;2023-12-29T00:40:32;95038.47;;;2.34;87.68
77041;BME280;65974;42.664;23.264;2023-12-29T00:42:59;95029.19;;;2.37;88.18
77041;BME280;65974;42.664;23.264;2023-12-29T00:45:25;95025.03;;;2.45;87.77
77041;BME280;65974;42.664;23.264;2023-12-29T00:47:50;95027.94;;;2.43;88.04
77041;BME280;65974;42.664;23.264;2023-12-29T00:50:17;95032.28;;;2.48;87.61
77041;BME280;65974;42.664;23.264;2023-12-29T00:52:42;95031.06;;;2.36;87.72
77041;BME280;65974;42.664;23.264;2023-12-29T00:55:08;95031.38;;;2.35;87.90
77041;BME280;65974;42.664;23.264;2023-12-29T00:57:34;95037.72;;;2.34;87.54
77041;BME280;65974;42.664;23.264;2023-12-29T01:00:00;95038.00;;;2.32;87.28
77041;BME280;65974;42.664;23.264;2023-12-29T01:02:26;95040.03;;;2.35;87.16
77041;BME280;65974;42.664;23.264;2023-12-29T01:04:52;95038.31;;;2.40;86.99
77041;BME280;65974;42.664;23.264;2023-12-29T01:07:17;95040.19;;;2.30;87.08
77041;BME280;65974;42.664;23.264;2023-12-29T01:09:43;95027.81;;;2.22;87.39
77041;BME280;65974;42.664;23.264;2023-12-29T01:12:08;95027.22;;;2.17;87.82
77041;BME280;65974;42.664;23.264;2023-12-29T01:14:34;95027.69;;;2.10;88.54
77041;BME280;65974;42.664;23.264;2023-12-29T01:17:00;95025.66;;;2.07;89.10
77041;BME280;65974;42.664;23.264;2023-12-29T01:19:26;95035.69;;;2.05;88.79
77041;BME280;65974;42.664;23.264;2023-12-29T01:21:53;95042.06;;;2.04;88.87
77041;BME280;65974;42.664;23.264;2023-12-29T01:24:20;95037.41;;;2.01;88.91
77041;BME280;65974;42.664;23.264;2023-12-29T01:26:46;95033.38;;;2.04;88.72
77041;BME280;65974;42.664;23.264;2023-12-29T01:29:11;95031.38;;;2.09;87.87
77041;BME280;65974;42.664;23.264;2023-12-29T01:31:37;95033.84;;;2.06;87.69
77041;BME280;65974;42.664;23.264;2023-12-29T01:34:02;95038.00;;;1.98;88.25
77041;BME280;65974;42.664;23.264;2023-12-29T01:36:28;95039.25;;;1.92;88.99
77041;BME280;65974;42.664;23.264;2023-12-29T01:38:53;95047.75;;;1.89;88.99
77041;BME280;65974;42.664;23.264;2023-12-29T01:41:19;95050.66;;;1.79;88.95
77041;BME280;65974;42.664;23.264;2023-12-29T01:44:18;95040.91;;;1.71;89.43
77041;BME280;65974;42.664;23.264;2023-12-29T01:46:51;95044.94;;;1.77;89.18
77041;BME280;65974;42.664;23.264;2023-12-29T01:49:19;95040.00;;;1.84;89.13
77041;BME280;65974;42.664;23.264;2023-12-29T01:51:49;95035.69;;;1.88;88.95
77041;BME280;65974;42.664;23.264;2023-12-29T01:54:16;95033.19;;;1.83;88.88
77041;BME280;65974;42.664;23.264;2023-12-29T01:56:42;95033.69;;;1.77;89.41
77041;BME280;65974;42.664;23.264;2023-12-29T01:59:09;95023.94;;;1.77;89.31
77041;BME280;65974;42.664;23.264;2023-12-29T02:01:37;95028.91;;;1.87;89.46
77041;BME280;65974;42.664;23.264;2023-12-29T02:04:04;95019.00;;;1.76;89.42
77041;BME280;65974;42.664;23.264;2023-12-29T02:06:31;95016.50;;;1.79;89.56
77041;BME280;65974;42.664;23.264;2023-12-29T02:08:58;95009.09;;;1.90;89.16
77041;BME280;65974;42.664;23.264;2023-12-29T02:11:24;95004.50;;;1.95;89.08
77041;BME280;65974;42.664;23.264;2023-12-29T02:13:50;94997.22;;;1.92;89.54
77041;BME280;65974;42.664;23.264;2023-12-29T02:16:46;95002.16;;;1.68;90.98
77041;BME280;65974;42.664;23.264;2023-12-29T02:22:01;94991.03;;;1.71;91.44
77041;BME280;65974;42.664;23.264;2023-12-29T02:24:26;94990.72;;;1.73;91.50
77041;BME280;65974;42.664;23.264;2023-12-29T02:26:58;94990.72;;;1.81;90.71
77041;BME280;65974;42.664;23.264;2023-12-29T02:29:27;94993.81;;;1.83;91.11
77041;BME280;65974;42.664;23.264;2023-12-29T02:31:59;94986.44;;;1.85;90.72
77041;BME280;65974;42.664;23.264;2023-12-29T02:34:27;94977.00;;;1.93;91.37
77041;BME280;65974;42.664;23.264;2023-12-29T02:36:53;94977.00;;;2.01;91.29
77041;BME280;65974;42.664;23.264;2023-12-29T02:39:19;94980.53;;;1.97;90.93
77041;BME280;65974;42.664;23.264;2023-12-29T02:41:45;94978.38;;;1.90;90.73
77041;BME280;65974;42.664;23.264;2023-12-29T02:44:11;94979.75;;;1.79;90.50
77041;BME280;65974;42.664;23.264;2023-12-29T02:46:36;94972.34;;;1.73;90.43
77041;BME280;65974;42.664;23.264;2023-12-29T02:49:02;94974.34;;;1.67;90.39
77041;BME280;65974;42.664;23.264;2023-12-29T02:51:27;94968.19;;;1.63;90.47
77041;BME280;65974;42.664;23.264;2023-12-29T02:53:53;94965.56;;;1.63;90.12
77041;BME280;65974;42.664;23.264;2023-12-29T02:56:18;94959.97;;;1.65;89.72
77041;BME280;65974;42.664;23.264;2023-12-29T02:58:44;94958.75;;;1.62;89.87
77041;BME280;65974;42.664;23.264;2023-12-29T03:01:11;94953.03;;;1.60;89.65
77041;BME280;65974;42.664;23.264;2023-12-29T03:03:38;94949.81;;;1.63;90.20
77041;BME280;65974;42.664;23.264;2023-12-29T03:06:05;94957.97;;;1.53;90.99
77041;BME280;65974;42.664;23.264;2023-12-29T03:08:31;94954.44;;;1.49;90.37
77041;BME280;65974;42.664;23.264;2023-12-29T03:10:57;94947.16;;;1.46;90.00
77041;BME280;65974;42.664;23.264;2023-12-29T03:13:23;94945.13;;;1.43;90.41
77041;BME280;65974;42.664;23.264;2023-12-29T03:15:48;94940.34;;;1.45;89.79
77041;BME280;65974;42.664;23.264;2023-12-29T03:18:14;94948.06;;;1.41;89.97
77041;BME280;65974;42.664;23.264;2023-12-29T03:20:39;94942.97;;;1.36;90.39
77041;BME280;65974;42.664;23.264;2023-12-29T03:23:05;94939.72;;;1.31;90.00
77041;BME280;65974;42.664;23.264;2023-12-29T03:25:30;94947.72;;;1.26;90.57
77041;BME280;65974;42.664;23.264;2023-12-29T03:27:56;94946.66;;;1.18;90.62
77041;BME280;65974;42.664;23.264;2023-12-29T03:30:21;94950.19;;;1.14;91.04
77041;BME280;65974;42.664;23.264;2023-12-29T03:32:47;94950.81;;;1.11;91.70
77041;BME280;65974;42.664;23.264;2023-12-29T03:35:12;94938.16;;;1.13;91.24
77041;BME280;65974;42.664;23.264;2023-12-29T03:37:38;94939.09;;;1.17;90.97
77041;BME280;65974;42.664;23.264;2023-12-29T03:40:04;94936.44;;;1.08;91.47
77041;BME280;65974;42.664;23.264;2023-12-29T03:42:30;94941.66;;;1.00;91.46
77041;BME280;65974;42.664;23.264;2023-12-29T03:44:55;94940.72;;;0.96;92.56
77041;BME280;65974;42.664;23.264;2023-12-29T03:47:21;94942.25;;;0.88;92.73
77041;BME280;65974;42.664;23.264;2023-12-29T03:49:47;94943.59;;;0.86;93.29
77041;BME280;65974;42.664;23.264;2023-12-29T03:52:13;94938.22;;;0.82;93.48
77041;BME280;65974;42.664;23.264;2023-12-29T03:54:39;94938.22;;;0.82;93.98
77041;BME280;65974;42.664;23.264;2023-12-29T03:57:04;94944.22;;;0.83;94.14
77041;BME280;65974;42.664;23.264;2023-12-29T03:59:30;94950.25;;;0.92;94.08
77041;BME280;65974;42.664;23.264;2023-12-29T04:01:55;94950.28;;;1.00;94.08
77041;BME280;65974;42.664;23.264;2023-12-29T04:04:21;94941.00;;;0.94;93.52
77041;BME280;65974;42.664;23.264;2023-12-29T04:06:47;94944.72;;;0.93;93.47
77041;BME280;65974;42.664;23.264;2023-12-29T04:09:12;94941.94;;;0.90;93.59
77041;BME280;65974;42.664;23.264;2023-12-29T04:11:38;94948.72;;;0.91;93.66
77041;BME280;65974;42.664;23.264;2023-12-29T04:14:03;94939.50;;;0.93;93.36
77041;BME280;65974;42.664;23.264;2023-12-29T04:16:29;94941.94;;;0.98;93.27
77041;BME280;65974;42.664;23.264;2023-12-29T04:18:54;94951.38;;;0.99;93.28
77041;BME280;65974;42.664;23.264;2023-12-29T04:21:21;94954.00;;;0.99;92.93
77041;BME280;65974;42.664;23.264;2023-12-29T04:23:46;94949.53;;;1.00;92.57
77041;BME280;65974;42.664;23.264;2023-12-29T04:26:12;94953.84;;;0.96;92.58
77041;BME280;65974;42.664;23.264;2023-12-29T04:28:37;94940.56;;;1.01;92.42
77041;BME280;65974;42.664;23.264;2023-12-29T04:31:03;94935.97;;;1.06;91.46
77041;BME280;65974;42.664;23.264;2023-12-29T04:33:29;94938.59;;;0.98;91.40
77041;BME280;65974;42.664;23.264;2023-12-29T04:35:54;94939.19;;;1.03;92.02
77041;BME280;65974;42.664;23.264;2023-12-29T04:38:20;94948.78;;;1.08;91.08
77041;BME280;65974;42.664;23.264;2023-12-29T04:40:46;94951.41;;;1.08;91.82
77041;BME280;65974;42.664;23.264;2023-12-29T04:43:14;94946.47;;;1.06;91.91
77041;BME280;65974;42.664;23.264;2023-12-29T04:45:40;94938.41;;;1.03;92.40
77041;BME280;65974;42.664;23.264;2023-12-29T04:48:06;94947.19;;;0.98;92.49
77041;BME280;65974;42.664;23.264;2023-12-29T04:50:31;94953.69;;;1.01;92.18
77041;BME280;65974;42.664;23.264;2023-12-29T04:52:57;94949.22;;;1.01;92.06
77041;BME280;65974;42.664;23.264;2023-12-29T04:55:22;94950.00;;;1.02;91.75
77041;BME280;65974;42.664;23.264;2023-12-29T04:57:48;94947.22;;;1.07;91.64
77041;BME280;65974;42.664;23.264;2023-12-29T05:00:13;94943.84;;;1.06;91.13
77041;BME280;65974;42.664;23.264;2023-12-29T05:02:39;94943.97;;;1.01;91.39
77041;BME280;65974;42.664;23.264;2023-12-29T05:05:05;94937.34;;;0.95;91.81
77041;BME280;65974;42.664;23.264;2023-12-29T05:07:31;94931.75;;;0.88;92.05
77041;BME280;65974;42.664;23.264;2023-12-29T05:09:56;94928.34;;;0.88;92.59
77041;BME280;65974;42.664;23.264;2023-12-29T05:12:22;94933.91;;;0.86;92.83
77041;BME280;65974;42.664;23.264;2023-12-29T05:14:47;94924.66;;;0.89;92.74
77041;BME280;65974;42.664;23.264;2023-12-29T05:17:13;94925.59;;;0.93;92.24
77041;BME280;65974;42.664;23.264;2023-12-29T05:19:38;94923.28;;;0.91;92.02
77041;BME280;65974;42.664;23.264;2023-12-29T05:22:04;94919.25;;;0.85;92.46
77041;BME280;65974;42.664;23.264;2023-12-29T05:24:29;94916.00;;;0.79;92.23
77041;BME280;65974;42.664;23.264;2023-12-29T05:26:56;94922.91;;;0.75;92.38
77041;BME280;65974;42.664;23.264;2023-12-29T05:29:23;94922.44;;;0.73;92.41
77041;BME280;65974;42.664;23.264;2023-12-29T05:31:48;94931.69;;;0.71;92.69
77041;BME280;65974;42.664;23.264;2023-12-29T05:34:14;94928.75;;;0.72;92.66
77041;BME280;65974;42.664;23.264;2023-12-29T05:36:39;94928.75;;;0.72;92.69
77041;BME280;65974;42.664;23.264;2023-12-29T05:39:05;94934.22;;;0.85;91.71
77041;BME280;65974;42.664;23.264;2023-12-29T05:41:31;94939.16;;;0.86;91.51
77041;BME280;65974;42.664;23.264;2023-12-29T05:43:56;94947.63;;;0.83;91.75
77041;BME280;65974;42.664;23.264;2023-12-29T05:46:23;94938.63;;;0.67;92.57
77041;BME280;65974;42.664;23.264;2023-12-29T05:48:49;94936.00;;;0.67;93.21
77041;BME280;65974;42.664;23.264;2023-12-29T05:51:14;94937.09;;;0.66;93.21
77041;BME280;65974;42.664;23.264;2023-12-29T05:53:40;94946.00;;;0.65;93.49
77041;BME280;65974;42.664;23.264;2023-12-29T05:56:06;94936.59;;;0.64;92.85
77041;BME280;65974;42.664;23.264;2023-12-29T05:58:31;94931.53;;;0.67;92.90
77041;BME280;65974;42.664;23.264;2023-12-29T06:00:57;94937.25;;;0.69;92.89
77041;BME280;65974;42.664;23.264;2023-12-29T06:03:27;94925.34;;;0.63;92.61
77041;BME280;65974;42.664;23.264;2023-12-29T06:05:53;94930.28;;;0.65;92.33
77041;BME280;65974;42.664;23.264;2023-12-29T06:08:19;94927.06;;;0.68;92.09
77041;BME280;65974;42.664;23.264;2023-12-29T06:10:44;94921.06;;;0.76;91.41
77041;BME280;65974;42.664;23.264;2023-12-29T06:13:10;94915.97;;;0.71;91.63
77041;BME280;65974;42.664;23.264;2023-12-29T06:15:35;94921.63;;;0.64;92.10
77041;BME280;65974;42.664;23.264;2023-12-29T06:18:02;94923.78;;;0.62;92.58
77041;BME280;65974;42.664;23.264;2023-12-29T06:20:27;94919.16;;;0.59;92.38
77041;BME280;65974;42.664;23.264;2023-12-29T06:22:53;94921.59;;;0.56;92.93
77041;BME280;65974;42.664;23.264;2023-12-29T06:25:20;94929.47;;;0.56;92.92
77041;BME280;65974;42.664;23.264;2023-12-29T06:27:46;94931.19;;;0.60;92.98
77041;BME280;65974;42.664;23.264;2023-12-29T06:30:12;94939.50;;;0.62;92.86
77041;BME280;65974;42.664;23.264;2023-12-29T06:32:37;94940.47;;;0.66;92.58
77041;BME280;65974;42.664;23.264;2023-12-29T06:35:04;94942.34;;;0.74;92.60
77041;BME280;65974;42.664;23.264;2023-12-29T06:37:30;94940.28;;;0.63;92.76
77041;BME280;65974;42.664;23.264;2023-12-29T06:39:56;94945.56;;;0.71;92.67
77041;BME280;65974;42.664;23.264;2023-12-29T06:42:23;94936.38;;;0.83;92.37
77041;BME280;65974;42.664;23.264;2023-12-29T06:44:49;94947.13;;;0.81;92.63
77041;BME280;65974;42.664;23.264;2023-12-29T06:47:15;94944.81;;;0.79;92.65
77041;BME280;65974;42.664;23.264;2023-12-29T06:49:40;94945.28;;;0.82;92.90
77041;BME280;65974;42.664;23.264;2023-12-29T06:52:06;94937.78;;;0.89;92.62
77041;BME280;65974;42.664;23.264;2023-12-29T06:54:33;94929.94;;;0.97;92.97
77041;BME280;65974;42.664;23.264;2023-12-29T06:56:58;94932.91;;;1.04;92.97
77041;BME280;65974;42.664;23.264;2023-12-29T06:59:24;94934.09;;;1.07;92.96
77041;BME280;65974;42.664;23.264;2023-12-29T07:01:50;94932.56;;;1.06;92.61
77041;BME280;65974;42.664;23.264;2023-12-29T07:04:15;94945.56;;;1.11;92.93
77041;BME280;65974;42.664;23.264;2023-12-29T07:06:41;94951.56;;;1.20;92.94
77041;BME280;65974;42.664;23.264;2023-12-29T07:09:07;94942.34;;;1.22;92.60
77041;BME280;65974;42.664;23.264;2023-12-29T07:11:34;94940.03;;;1.21;93.04
77041;BME280;65974;42.664;23.264;2023-12-29T07:13:59;94944.63;;;1.24;93.22
77041;BME280;65974;42.664;23.264;2023-12-29T07:16:26;94937.88;;;1.31;92.86
77041;BME280;65974;42.664;23.264;2023-12-29T07:18:53;94941.44;;;1.35;92.49
77041;BME280;65974;42.664;23.264;2023-12-29T07:21:18;94936.81;;;1.41;92.52
77041;BME280;65974;42.664;23.264;2023-12-29T07:23:44;94941.91;;;1.46;92.24
77041;BME280;65974;42.664;23.264;2023-12-29T07:26:11;94932.66;;;1.48;92.30
77041;BME280;65974;42.664;23.264;2023-12-29T07:28:37;94934.19;;;1.49;92.07
77041;BME280;65974;42.664;23.264;2023-12-29T07:31:02;94926.63;;;1.48;91.59
77041;BME280;65974;42.664;23.264;2023-12-29T07:33:28;94931.28;;;1.51;91.33
77041;BME280;65974;42.664;23.264;2023-12-29T07:35:54;94929.41;;;1.51;91.56
77041;BME280;65974;42.664;23.264;2023-12-29T07:38:19;94923.88;;;1.53;91.41
77041;BME280;65974;42.664;23.264;2023-12-29T07:40:45;94928.19;;;1.58;91.22
77041;BME280;65974;42.664;23.264;2023-12-29T07:43:13;94930.81;;;1.66;91.25
77041;BME280;65974;42.664;23.264;2023-12-29T07:45:38;94922.31;;;1.78;91.34
77041;BME280;65974;42.664;23.264;2023-12-29T07:48:04;94927.41;;;1.91;90.94
77041;BME280;65974;42.664;23.264;2023-12-29T07:50:30;94934.66;;;1.94;90.95
77041;BME280;65974;42.664;23.264;2023-12-29T07:52:56;94934.38;;;1.96;91.05
77041;BME280;65974;42.664;23.264;2023-12-29T07:55:21;94940.81;;;1.98;91.43
77041;BME280;65974;42.664;23.264;2023-12-29T07:57:47;94941.28;;;2.00;91.28
77041;BME280;65974;42.664;23.264;2023-12-29T08:00:17;94940.81;;;2.07;91.12
77041;BME280;65974;42.664;23.264;2023-12-29T08:02:42;94944.06;;;2.12;91.44
77041;BME280;65974;42.664;23.264;2023-12-29T08:05:08;94945.31;;;2.23;91.13
77041;BME280;65974;42.664;23.264;2023-12-29T08:07:35;94934.13;;;2.35;90.57
77041;BME280;65974;42.664;23.264;2023-12-29T08:10:02;94931.47;;;2.44;90.31
77041;BME280;65974;42.664;23.264;2023-12-29T08:12:29;94932.22;;;2.53;90.31
77041;BME280;65974;42.664;23.264;2023-12-29T08:14:55;94934.97;;;2.65;90.51
77041;BME280;65974;42.664;23.264;2023-12-29T08:17:21;94930.91;;;2.76;90.05
77041;BME280;65974;42.664;23.264;2023-12-29T08:19:47;94935.19;;;2.89;89.65
77041;BME280;65974;42.664;23.264;2023-12-29T08:22:12;94933.44;;;3.01;89.60
77041;BME280;65974;42.664;23.264;2023-12-29T08:24:40;94935.53;;;3.17;88.85
77041;BME280;65974;42.664;23.264;2023-12-29T08:27:08;94924.00;;;3.30;88.37
77041;BME280;65974;42.664;23.264;2023-12-29T08:29:34;94937.81;;;3.47;87.89
77041;BME280;65974;42.664;23.264;2023-12-29T08:31:59;94931.06;;;3.58;86.72
77041;BME280;65974;42.664;23.264;2023-12-29T08:34:27;94932.50;;;3.76;86.92
77041;BME280;65974;42.664;23.264;2023-12-29T08:36:52;94938.97;;;4.00;85.79
77041;BME280;65974;42.664;23.264;2023-12-29T08:39:18;94944.28;;;4.12;85.56
77041;BME280;65974;42.664;23.264;2023-12-29T08:41:44;94943.59;;;4.23;83.86
77041;BME280;65974;42.664;23.264;2023-12-29T08:44:09;94948.00;;;4.31;83.13
77041;BME280;65974;42.664;23.264;2023-12-29T08:46:35;94938.06;;;4.49;82.21
77041;BME280;65974;42.664;23.264;2023-12-29T08:49:01;94942.91;;;4.59;81.57
77041;BME280;65974;42.664;23.264;2023-12-29T08:51:26;94944.03;;;4.82;81.18
77041;BME280;65974;42.664;23.264;2023-12-29T08:53:52;94938.22;;;5.01;79.81
77041;BME280;65974;42.664;23.264;2023-12-29T08:56:18;94939.56;;;5.19;78.94
77041;BME280;65974;42.664;23.264;2023-12-29T08:58:43;94946.28;;;5.40;78.80
77041;BME280;65974;42.664;23.264;2023-12-29T09:01:09;94948.34;;;5.59;77.25
77041;BME280;65974;42.664;23.264;2023-12-29T09:03:34;94949.50;;;5.74;76.59
77041;BME280;65974;42.664;23.264;2023-12-29T09:06:00;94955.34;;;5.91;76.23
77041;BME280;65974;42.664;23.264;2023-12-29T09:08:26;94947.38;;;6.03;75.60
77041;BME280;65974;42.664;23.264;2023-12-29T09:10:52;94947.88;;;6.21;75.41
77041;BME280;65974;42.664;23.264;2023-12-29T09:13:17;94950.44;;;6.33;75.19
77041;BME280;65974;42.664;23.264;2023-12-29T09:15:49;94945.22;;;6.49;73.97
77041;BME280;65974;42.664;23.264;2023-12-29T09:18:14;94931.66;;;6.66;72.96
77041;BME280;65974;42.664;23.264;2023-12-29T09:20:39;94942.53;;;6.92;72.74
77041;BME280;65974;42.664;23.264;2023-12-29T09:23:05;94936.91;;;7.09;71.24
77041;BME280;65974;42.664;23.264;2023-12-29T09:25:30;94930.25;;;7.15;70.44
77041;BME280;65974;42.664;23.264;2023-12-29T09:27:56;94924.84;;;7.27;70.49
77041;BME280;65974;42.664;23.264;2023-12-29T09:30:21;94910.19;;;7.49;69.19
77041;BME280;65974;42.664;23.264;2023-12-29T09:32:47;94911.69;;;7.65;67.88
77041;BME280;65974;42.664;23.264;2023-12-29T09:35:12;94902.91;;;7.80;68.01
77041;BME280;65974;42.664;23.264;2023-12-29T09:37:38;94903.06;;;7.88;67.91
77041;BME280;65974;42.664;23.264;2023-12-29T09:40:04;94897.81;;;8.10;67.30
77041;BME280;65974;42.664;23.264;2023-12-29T09:42:31;94898.88;;;8.06;66.99
77041;BME280;65974;42.664;23.264;2023-12-29T09:44:58;94893.75;;;8.16;67.65
77041;BME280;65974;42.664;23.264;2023-12-29T09:47:28;94896.72;;;8.30;67.61
77041;BME280;65974;42.664;23.264;2023-12-29T09:49:55;94892.09;;;8.46;67.46
77041;BME280;65974;42.664;23.264;2023-12-29T09:52:21;94899.47;;;8.56;67.71
77041;BME280;65974;42.664;23.264;2023-12-29T09:54:51;94893.47;;;8.59;67.34
77041;BME280;65974;42.664;23.264;2023-12-29T09:57:18;94890.34;;;8.77;67.50
77041;BME280;65974;42.664;23.264;2023-12-29T09:59:44;94888.47;;;8.77;67.48
77041;BME280;65974;42.664;23.264;2023-12-29T10:02:15;94894.53;;;8.78;67.26
77041;BME280;65974;42.664;23.264;2023-12-29T10:04:44;94889.34;;;8.85;66.98
77041;BME280;65974;42.664;23.264;2023-12-29T10:07:18;94877.19;;;8.84;66.62
77041;BME280;65974;42.664;23.264;2023-12-29T10:09:46;94881.41;;;9.11;66.35
77041;BME280;65974;42.664;23.264;2023-12-29T10:12:14;94868.63;;;9.46;65.38
77041;BME280;65974;42.664;23.264;2023-12-29T10:14:53;94871.78;;;9.29;65.03
77041;BME280;65974;42.664;23.264;2023-12-29T10:23:14;94859.56;;;9.51;63.97
77041;BME280;65974;42.664;23.264;2023-12-29T10:25:42;94852.69;;;9.76;63.63
77041;BME280;65974;42.664;23.264;2023-12-29T10:28:09;94852.03;;;9.56;63.94
77041;BME280;65974;42.664;23.264;2023-12-29T10:30:35;94847.88;;;9.88;63.37
77041;BME280;65974;42.664;23.264;2023-12-29T10:33:04;94841.75;;;10.14;61.66
77041;BME280;65974;42.664;23.264;2023-12-29T10:35:30;94830.50;;;10.28;61.70
77041;BME280;65974;42.664;23.264;2023-12-29T10:38:11;94829.97;;;10.52;61.40
77041;BME280;65974;42.664;23.264;2023-12-29T10:40:37;94821.78;;;10.71;60.77
77041;BME280;65974;42.664;23.264;2023-12-29T10:43:03;94815.84;;;10.91;60.24
77041;BME280;65974;42.664;23.264;2023-12-29T10:45:35;94813.72;;;11.11;59.54
77041;BME280;65974;42.664;23.264;2023-12-29T10:48:04;94812.53;;;11.09;59.44
77041;BME280;65974;42.664;23.264;2023-12-29T10:50:42;94807.94;;;11.02;59.44
77041;BME280;65974;42.664;23.264;2023-12-29T10:53:13;94794.59;;;10.99;59.38
77041;BME280;65974;42.664;23.264;2023-12-29T10:55:38;94787.78;;;11.05;59.46
77041;BME280;65974;42.664;23.264;2023-12-29T10:58:05;94790.56;;;11.29;58.64
77041;BME280;65974;42.664;23.264;2023-12-29T11:00:32;94780.00;;;11.47;58.50
77041;BME280;65974;42.664;23.264;2023-12-29T11:02:58;94778.50;;;11.56;58.34
77041;BME280;65974;42.664;23.264;2023-12-29T11:05:27;94770.50;;;11.56;58.12
77041;BME280;65974;42.664;23.264;2023-12-29T11:07:54;94772.09;;;11.64;58.13
77041;BME280;65974;42.664;23.264;2023-12-29T11:10:21;94769.84;;;11.74;57.66
77041;BME280;65974;42.664;23.264;2023-12-29T11:12:48;94769.53;;;11.93;57.46
77041;BME280;65974;42.664;23.264;2023-12-29T11:15:15;94763.84;;;12.08;56.41
77041;BME280;65974;42.664;23.264;2023-12-29T11:17:42;94762.34;;;12.11;55.98
77041;BME280;65974;42.664;23.264;2023-12-29T11:20:17;94761.56;;;12.10;55.75
77041;BME280;65974;42.664;23.264;2023-12-29T11:22:46;94762.72;;;12.09;55.34
77041;BME280;65974;42.664;23.264;2023-12-29T11:25:11;94760.00;;;11.92;55.24
77041;BME280;65974;42.664;23.264;2023-12-29T11:27:37;94762.22;;;11.76;55.74
77041;BME280;65974;42.664;23.264;2023-12-29T11:30:05;94759.63;;;11.90;55.74
77041;BME280;65974;42.664;23.264;2023-12-29T11:32:51;94757.31;;;11.85;55.69
77041;BME280;65974;42.664;23.264;2023-12-29T11:35:22;94757.66;;;11.76;55.97
77041;BME280;65974;42.664;23.264;2023-12-29T11:43:25;94747.75;;;11.73;56.14
77041;BME280;65974;42.664;23.264;2023-12-29T11:45:51;94748.53;;;11.81;56.26
77041;BME280;65974;42.664;23.264;2023-12-29T11:51:30;94735.81;;;11.49;56.88
77041;BME280;65974;42.664;23.264;2023-12-29T11:53:56;94739.63;;;11.45;56.98
77041;BME280;65974;42.664;23.264;2023-12-29T11:56:23;94741.13;;;11.39;56.90
77041;BME280;65974;42.664;23.264;2023-12-29T11:58:48;94733.47;;;11.30;57.52
77041;BME280;65974;42.664;23.264;2023-12-29T12:01:33;94752.47;;;11.25;57.71
77041;BME280;65974;42.664;23.264;2023-12-29T12:03:58;94738.34;;;11.18;57.05
77041;BME280;65974;42.664;23.264;2023-12-29T12:06:39;94732.19;;;11.10;57.20
77041;BME280;65974;42.664;23.264;2023-12-29T12:09:23;94727.97;;;11.02;57.74
77041;BME280;65974;42.664;23.264;2023-12-29T12:11:50;94727.56;;;10.97;57.55
77041;BME280;65974;42.664;23.264;2023-12-29T12:17:12;94729.00;;;10.83;57.77
77041;BME280;65974;42.664;23.264;2023-12-29T12:19:53;94732.41;;;10.84;57.74
77041;BME280;65974;42.664;23.264;2023-12-29T12:22:23;94728.97;;;10.80;57.76
77041;BME280;65974;42.664;23.264;2023-12-29T12:24:55;94730.88;;;10.79;57.82
77041;BME280;65974;42.664;23.264;2023-12-29T12:27:21;94733.50;;;10.76;58.08
77041;BME280;65974;42.664;23.264;2023-12-29T12:29:52;94738.06;;;10.75;57.97
77041;BME280;65974;42.664;23.264;2023-12-29T12:32:21;94735.06;;;10.77;58.02
77041;BME280;65974;42.664;23.264;2023-12-29T12:34:47;94730.84;;;10.76;58.16
77041;BME280;65974;42.664;23.264;2023-12-29T12:37:18;94730.47;;;10.74;57.99
77041;BME280;65974;42.664;23.264;2023-12-29T12:39:44;94732.41;;;10.80;57.12
77041;BME280;65974;42.664;23.264;2023-12-29T12:42:09;94741.56;;;10.83;57.42
77041;BME280;65974;42.664;23.264;2023-12-29T12:44:41;94738.16;;;10.86;57.61
77041;BME280;65974;42.664;23.264;2023-12-29T12:47:09;94735.91;;;10.95;57.12
77041;BME280;65974;42.664;23.264;2023-12-29T12:49:39;94730.63;;;11.02;56.13
77041;BME280;65974;42.664;23.264;2023-12-29T12:52:06;94730.69;;;11.09;56.25
77041;BME280;65974;42.664;23.264;2023-12-29T12:54:32;94735.59;;;11.04;56.48
77041;BME280;65974;42.664;23.264;2023-12-29T12:56:57;94736.38;;;11.08;56.38
77041;BME280;65974;42.664;23.264;2023-12-29T12:59:23;94730.66;;;11.06;56.66
77041;BME280;65974;42.664;23.264;2023-12-29T13:01:49;94732.19;;;11.07;56.75
77041;BME280;65974;42.664;23.264;2023-12-29T13:04:15;94719.63;;;11.07;57.25
77041;BME280;65974;42.664;23.264;2023-12-29T13:06:42;94721.53;;;11.10;57.50
77041;BME280;65974;42.664;23.264;2023-12-29T13:09:11;94726.53;;;11.15;56.97
77041;BME280;65974;42.664;23.264;2023-12-29T13:11:41;94726.16;;;11.20;56.23
77041;BME280;65974;42.664;23.264;2023-12-29T13:14:06;94733.03;;;11.18;57.05
77041;BME280;65974;42.664;23.264;2023-12-29T13:16:36;94732.25;;;11.17;57.47